Time;durP1;ratioP1;P1;durP2;ratioP2;P2;SDS_P1;SDS_P2;PMS_P1;PMS_P2;Temp;Humidity;BMP_temperature;BMP_pressure;BME280_temperature;BME280_humidity;BME280_pressure;Samples;Min_cycle;Max_cycle;Signal;HPM_P1;HPM_P2
2021/12/10 00:01:51;;;;;;;4.43;2.30;;;2.50;99.90;;;;;;4899318;29;20519;-78
2021/12/10 00:04:20;;;;;;;5.13;2.53;;;2.40;99.90;;;;;;4897734;29;20394;-76
2021/12/10 00:06:49;;;;;;;3.07;2.30;;;2.30;99.90;;;;;;4899582;29;21001;-76
2021/12/10 00:09:29;;;;;;;4.47;2.20;;;2.20;99.90;;;;;;4899173;29;20545;-77
2021/12/10 00:12:03;;;;;;;3.90;1.73;;;2.20;99.90;;;;;;4899107;29;20518;-79
2021/12/10 00:14:31;;;;;;;7.13;2.40;;;2.10;99.90;;;;;;4899167;29;20405;-78
2021/12/10 00:16:59;;;;;;;5.07;1.43;;;2.10;99.90;;;;;;4897873;29;20459;-78
2021/12/10 00:22:39;;;;;;;4.07;1.63;;;2.00;99.90;;;;;;4890513;29;20452;-78
2021/12/10 00:25:13;;;;;;;4.20;1.90;;;2.00;99.90;;;;;;4898877;29;20418;-78
2021/12/10 00:27:39;;;;;;;2.60;1.70;;;2.00;99.90;;;;;;4898292;29;20428;-78
2021/12/10 00:30:24;;;;;;;6.70;1.80;;;2.00;99.90;;;;;;4898654;29;20560;-78
2021/12/10 00:33:03;;;;;;;5.40;1.57;;;1.90;99.90;;;;;;4898692;29;20466;-76
2021/12/10 00:35:32;;;;;;;2.70;1.80;;;1.80;99.90;;;;;;4898634;29;20402;-77
2021/12/10 00:37:58;;;;;;;8.30;1.73;;;1.70;99.90;;;;;;4898485;29;20499;-78
2021/12/10 00:40:26;;;;;;;5.03;1.80;;;1.50;99.90;;;;;;4898600;29;20784;-78
2021/12/10 00:42:54;;;;;;;2.87;1.33;;;1.40;99.90;;;;;;4896970;29;20466;-77
2021/12/10 00:45:21;;;;;;;6.80;1.63;;;1.30;99.90;;;;;;4898573;29;20422;-78
2021/12/10 00:47:48;;;;;;;3.67;1.63;;;1.30;99.90;;;;;;4898439;29;20424;-78
2021/12/10 00:50:24;;;;;;;1.53;1.43;;;1.20;99.90;;;;;;4898212;29;20463;-78
2021/12/10 00:52:50;;;;;;;2.50;1.97;;;1.20;99.90;;;;;;4897913;29;20964;-77
2021/12/10 00:55:17;;;;;;;3.00;1.80;;;1.10;99.90;;;;;;4898310;29;20398;-78
2021/12/10 00:57:43;;;;;;;4.40;1.60;;;1.00;99.90;;;;;;4898172;29;20472;-77
2021/12/10 05:32:03;;;;;;;8.70;3.17;;;0.00;99.90;;;;;;5389326;23;20556;-76
2021/12/10 05:34:28;;;;;;;4.20;2.40;;;0.00;99.90;;;;;;4895763;29;20411;-77
2021/12/10 05:36:56;;;;;;;7.83;3.70;;;0.00;99.90;;;;;;4897381;29;20420;-76
2021/12/10 05:39:23;;;;;;;10.00;3.80;;;0.00;99.90;;;;;;4897488;29;20196;-77
2021/12/10 05:41:50;;;;;;;6.70;3.80;;;0.00;99.90;;;;;;4897613;29;20532;-77
2021/12/10 05:44:15;;;;;;;13.93;4.73;;;0.00;99.90;;;;;;4897478;29;20922;-74
2021/12/10 05:46:41;;;;;;;10.53;3.70;;;0.00;99.90;;;;;;4889353;29;20505;-77
2021/12/10 05:49:07;;;;;;;9.53;3.83;;;0.00;99.90;;;;;;4897043;29;20698;-77
2021/12/10 05:51:33;;;;;;;5.47;3.90;;;0.00;99.90;;;;;;4897455;29;20206;-77
2021/12/10 05:53:59;;;;;;;10.93;3.33;;;-0.10;99.90;;;;;;4897327;29;20566;-77
2021/12/10 05:56:25;;;;;;;11.13;4.40;;;-0.10;99.90;;;;;;4897312;29;21093;-75
2021/12/10 05:58:50;;;;;;;6.83;4.83;;;-0.20;99.90;;;;;;4897382;29;20236;-77
2021/12/10 06:01:18;;;;;;;4.23;3.80;;;-0.20;99.90;;;;;;4897375;29;20247;-77
2021/12/10 06:03:51;;;;;;;9.60;4.80;;;-0.30;99.90;;;;;;4906378;29;20210;-76
2021/12/10 06:06:22;;;;;;;3.80;3.47;;;-0.30;99.90;;;;;;4898587;29;20426;-76
2021/12/10 06:08:48;;;;;;;4.93;3.63;;;-0.40;99.90;;;;;;4896071;29;20423;-74
2021/12/10 06:11:14;;;;;;;8.23;2.57;;;-0.40;99.90;;;;;;4896860;29;20466;-76
2021/12/10 06:13:40;;;;;;;6.73;4.60;;;-0.50;99.90;;;;;;4897003;29;20831;-77
2021/12/10 06:16:07;;;;;;;9.67;4.73;;;-0.50;99.90;;;;;;4896781;29;20207;-77
2021/12/10 06:18:33;;;;;;;7.07;4.63;;;-0.40;99.90;;;;;;4896892;29;20552;-74
2021/12/10 06:20:59;;;;;;;8.63;5.50;;;-0.40;99.90;;;;;;4896721;29;20538;-75
2021/12/10 06:23:24;;;;;;;9.60;5.20;;;-0.30;99.90;;;;;;4896462;29;20261;-76
2021/12/10 06:25:50;;;;;;;9.17;5.40;;;-0.20;99.90;;;;;;4897385;29;20178;-77
2021/12/10 06:28:17;;;;;;;7.87;5.47;;;-0.10;99.90;;;;;;4896552;29;20719;-77
2021/12/10 06:30:45;;;;;;;8.60;5.10;;;-0.10;99.90;;;;;;4896553;29;20794;-76
2021/12/10 06:33:14;;;;;;;6.20;5.60;;;-0.10;99.90;;;;;;4895957;29;20446;-76
2021/12/10 06:35:41;;;;;;;9.63;6.10;;;-0.10;99.90;;;;;;4896655;29;20408;-77
2021/12/10 06:38:08;;;;;;;12.43;5.70;;;-0.20;99.90;;;;;;4896389;29;20448;-76
2021/12/10 06:40:36;;;;;;;5.87;4.60;;;-0.20;99.90;;;;;;4896571;29;20399;-76
2021/12/10 06:43:03;;;;;;;5.93;4.80;;;-0.20;99.90;;;;;;4897211;29;20397;-77
2021/12/10 06:45:29;;;;;;;8.07;5.43;;;-0.20;99.90;;;;;;4896734;29;20789;-77
2021/12/10 06:47:58;;;;;;;8.73;5.33;;;-0.20;99.90;;;;;;4897071;29;20423;-77
2021/12/10 06:50:26;;;;;;;11.67;6.50;;;-0.10;99.90;;;;;;4895703;29;20442;-78
2021/12/10 06:52:57;;;;;;;13.03;6.03;;;0.00;99.90;;;;;;4896582;29;20948;-77
2021/12/10 06:55:23;;;;;;;11.80;5.80;;;0.00;99.90;;;;;;4896417;29;20406;-77
2021/12/10 06:57:48;;;;;;;9.07;6.50;;;0.10;99.90;;;;;;4896537;29;20429;-76
2021/12/10 07:00:24;;;;;;;8.37;4.90;;;0.10;99.90;;;;;;4897690;29;20450;-77
2021/12/10 07:02:49;;;;;;;10.57;5.80;;;0.10;99.90;;;;;;4900039;29;20624;-77
2021/12/10 07:05:16;;;;;;;7.97;5.93;;;0.20;99.90;;;;;;4900022;29;20423;-77
2021/12/10 07:07:42;;;;;;;10.27;6.47;;;0.20;99.90;;;;;;4900185;29;20184;-74
2021/12/10 07:10:09;;;;;;;16.10;6.20;;;0.20;99.90;;;;;;4899652;29;20414;-76
2021/12/10 07:12:39;;;;;;;8.13;5.53;;;0.30;99.90;;;;;;4899756;29;20430;-74
2021/12/10 07:15:09;;;;;;;16.03;5.83;;;0.30;99.90;;;;;;4899425;29;20422;-73
2021/12/10 07:17:36;;;;;;;11.10;6.20;;;0.40;99.90;;;;;;4898477;29;20438;-74
2021/12/10 07:20:05;;;;;;;11.33;6.27;;;0.50;99.90;;;;;;4899489;29;20389;-73
2021/12/10 07:22:31;;;;;;;15.07;6.27;;;0.50;99.90;;;;;;4899657;29;20975;-73
2021/12/10 07:24:56;;;;;;;9.43;5.93;;;0.50;99.90;;;;;;4898356;29;20411;-76
2021/12/10 07:27:22;;;;;;;7.33;5.33;;;0.60;99.90;;;;;;4899384;29;20183;-74
2021/12/10 07:29:47;;;;;;;16.73;5.70;;;0.60;99.90;;;;;;4894459;29;20190;-74
2021/12/10 07:32:14;;;;;;;8.17;5.30;;;0.60;99.90;;;;;;4882102;29;20230;-75
2021/12/10 07:34:40;;;;;;;8.13;5.77;;;0.70;99.90;;;;;;4880920;29;20187;-76
2021/12/10 07:37:08;;;;;;;7.93;5.93;;;0.70;99.90;;;;;;4879283;29;20546;-73
2021/12/10 07:39:35;;;;;;;15.03;6.13;;;0.80;99.90;;;;;;4880681;29;20424;-75
2021/12/10 07:42:01;;;;;;;11.03;6.37;;;0.80;99.90;;;;;;4880466;29;20501;-73
2021/12/10 07:44:27;;;;;;;12.30;6.30;;;0.90;99.90;;;;;;4878896;29;20428;-74
2021/12/10 07:46:53;;;;;;;7.40;5.33;;;1.00;99.90;;;;;;4895173;29;20408;-75
2021/12/10 07:49:27;;;;;;;11.30;6.40;;;1.00;99.90;;;;;;4899042;29;20497;-74
2021/12/10 07:51:53;;;;;;;13.00;7.00;;;1.00;99.90;;;;;;4898954;29;20756;-74
2021/12/10 07:54:19;;;;;;;10.20;6.33;;;1.10;99.90;;;;;;4898531;29;20469;-75
2021/12/10 07:56:44;;;;;;;13.23;7.30;;;1.20;99.90;;;;;;4898953;29;20195;-74
2021/12/10 07:59:10;;;;;;;10.30;6.27;;;1.20;99.90;;;;;;4903410;29;20208;-73
2021/12/10 08:01:35;;;;;;;12.37;7.17;;;1.20;99.90;;;;;;4906348;29;20294;-73
2021/12/10 08:04:04;;;;;;;10.10;7.50;;;1.30;99.90;;;;;;4897467;29;20183;-75
2021/12/10 08:06:31;;;;;;;10.07;5.97;;;1.30;99.90;;;;;;4898902;29;20176;-73
2021/12/10 08:08:57;;;;;;;17.63;7.53;;;1.30;99.90;;;;;;4898770;29;20404;-74
2021/12/10 08:11:23;;;;;;;13.20;6.70;;;1.30;99.90;;;;;;4897796;29;20445;-74
2021/12/10 08:13:49;;;;;;;13.10;6.80;;;1.30;99.90;;;;;;4898547;29;20411;-73
2021/12/10 08:16:15;;;;;;;12.50;7.50;;;1.30;99.90;;;;;;4897331;29;21320;-74
2021/12/10 08:18:41;;;;;;;14.73;8.00;;;1.30;99.90;;;;;;4905143;29;20221;-74
2021/12/10 08:21:07;;;;;;;13.90;7.90;;;1.30;99.90;;;;;;4911183;29;20442;-74
2021/12/10 08:23:34;;;;;;;18.60;7.67;;;1.40;99.90;;;;;;4902628;29;20907;-74
2021/12/10 08:26:01;;;;;;;10.33;6.57;;;1.40;99.90;;;;;;4909252;29;20540;-73
2021/12/10 08:28:27;;;;;;;13.07;7.47;;;1.40;99.90;;;;;;4911164;29;20453;-74
2021/12/10 08:30:54;;;;;;;9.60;6.50;;;1.40;99.90;;;;;;4895889;29;20484;-74
2021/12/10 08:33:22;;;;;;;12.90;7.57;;;1.40;99.90;;;;;;4908878;29;20405;-73
2021/12/10 08:35:51;;;;;;;14.23;7.20;;;1.40;99.90;;;;;;4917110;29;20389;-74
2021/12/10 08:38:17;;;;;;;10.70;6.43;;;1.50;99.90;;;;;;4907947;29;20536;-76
2021/12/10 08:40:50;;;;;;;7.30;5.00;;;1.50;99.90;;;;;;4909035;29;20808;-73
2021/12/10 08:43:16;;;;;;;11.80;4.10;;;1.60;99.90;;;;;;4898252;29;20329;-74
2021/12/10 08:45:46;;;;;;;6.37;5.73;;;1.70;99.90;;;;;;4916993;29;20392;-73
2021/12/10 08:48:12;;;;;;;9.33;3.70;;;1.70;99.90;;;;;;4915563;29;20441;-74
2021/12/10 08:50:38;;;;;;;7.17;4.00;;;1.70;99.90;;;;;;4916891;29;20426;-74
2021/12/10 08:53:07;;;;;;;4.43;3.60;;;1.80;99.90;;;;;;4916511;29;20271;-74
2021/12/10 08:55:34;;;;;;;5.57;4.00;;;1.70;99.90;;;;;;4916827;29;20404;-73
2021/12/10 08:58:00;;;;;;;4.47;3.50;;;1.90;99.90;;;;;;4916595;29;20481;-73
2021/12/10 09:00:27;;;;;;;7.37;4.07;;;1.90;99.90;;;;;;4916719;29;20404;-73
2021/12/10 09:02:55;;;;;;;9.13;4.20;;;2.00;99.90;;;;;;4916413;29;20543;-73
2021/12/10 09:05:21;;;;;;;4.20;3.27;;;2.10;99.90;;;;;;4915163;29;20425;-73
2021/12/10 09:07:48;;;;;;;4.90;3.00;;;2.10;99.90;;;;;;4916484;29;20422;-74
2021/12/10 09:10:23;;;;;;;3.53;3.23;;;2.10;99.90;;;;;;4916399;29;20415;-74
2021/12/10 09:12:49;;;;;;;7.57;3.43;;;2.20;99.90;;;;;;4916803;29;20446;-73
2021/12/10 09:15:19;;;;;;;5.03;3.37;;;2.20;99.90;;;;;;4916162;29;20737;-77
2021/12/10 09:17:53;;;;;;;3.93;3.53;;;2.20;99.90;;;;;;4916724;29;20527;-74
2021/12/10 09:20:30;;;;;;;6.87;3.53;;;2.30;99.90;;;;;;4916284;29;20389;-74
2021/12/10 09:22:56;;;;;;;10.73;4.70;;;2.30;99.90;;;;;;4915666;29;20395;-76
2021/12/10 09:25:22;;;;;;;4.93;3.60;;;2.40;99.90;;;;;;4916172;29;20432;-74
2021/12/10 09:27:48;;;;;;;5.27;2.70;;;2.50;99.90;;;;;;4898151;29;20828;-72
2021/12/10 09:30:17;;;;;;;3.00;2.20;;;2.50;99.90;;;;;;4897337;29;20714;-74
2021/12/10 09:32:44;;;;;;;2.80;2.07;;;2.50;99.90;;;;;;4896613;29;20472;-75
2021/12/10 09:35:12;;;;;;;2.77;2.40;;;2.60;99.90;;;;;;4896571;29;20785;-74
2021/12/10 09:37:38;;;;;;;3.23;2.37;;;2.60;99.90;;;;;;4895454;29;20549;-74
2021/12/10 09:40:10;;;;;;;2.30;2.10;;;2.70;99.90;;;;;;4895592;29;20398;-75
2021/12/10 09:42:36;;;;;;;13.20;2.87;;;2.60;99.90;;;;;;4892098;29;20441;-75
2021/12/10 09:45:04;;;;;;;5.10;2.70;;;2.70;99.90;;;;;;4896653;29;20448;-75
2021/12/10 09:47:29;;;;;;;8.20;2.70;;;2.70;99.90;;;;;;4896707;29;20183;-76
2021/12/10 09:49:55;;;;;;;5.90;3.13;;;2.80;99.90;;;;;;4896988;29;20475;-74
2021/12/10 09:52:25;;;;;;;1.83;1.70;;;2.80;99.90;;;;;;4896636;29;20600;-75
2021/12/10 09:54:51;;;;;;;3.83;2.03;;;2.90;99.90;;;;;;4896787;29;20651;-74
2021/12/10 09:57:27;;;;;;;2.97;2.67;;;3.00;99.90;;;;;;4903432;29;20488;-74
2021/12/10 09:59:55;;;;;;;2.57;1.63;;;3.10;99.90;;;;;;4898132;29;20180;-75
2021/12/10 10:02:22;;;;;;;2.60;2.03;;;3.10;99.90;;;;;;4896561;29;20820;-75
2021/12/10 10:04:50;;;;;;;2.37;2.10;;;3.10;99.90;;;;;;4896613;29;20427;-76
2021/12/10 10:07:28;;;;;;;2.37;2.17;;;3.10;99.90;;;;;;4896395;29;20430;-75
2021/12/10 10:10:01;;;;;;;2.50;1.97;;;3.20;99.90;;;;;;4896830;29;20570;-75
2021/12/10 10:12:33;;;;;;;4.13;2.27;;;3.20;99.90;;;;;;4896563;29;20416;-77
2021/12/10 10:15:01;;;;;;;5.53;1.70;;;3.20;99.90;;;;;;4896422;29;20518;-75
2021/12/10 10:17:27;;;;;;;1.93;1.70;;;3.30;99.90;;;;;;4896229;29;21051;-73
2021/12/10 10:19:53;;;;;;;5.47;1.80;;;3.30;99.90;;;;;;4896284;29;20440;-72
2021/12/10 10:22:24;;;;;;;3.33;1.77;;;3.40;99.90;;;;;;4896176;29;20209;-73
2021/12/10 10:24:50;;;;;;;2.10;1.90;;;3.50;99.90;;;;;;4896361;29;20399;-75
2021/12/10 10:27:21;;;;;;;2.20;1.80;;;3.50;99.90;;;;;;4894618;29;20439;-73
2021/12/10 10:29:58;;;;;;;2.60;1.37;;;3.50;99.90;;;;;;4895078;29;20428;-73
2021/12/10 10:32:28;;;;;;;2.80;1.30;;;3.50;99.90;;;;;;4895777;29;20486;-75
2021/12/10 10:35:01;;;;;;;4.13;1.13;;;3.50;99.90;;;;;;4895720;29;20915;-74
2021/12/10 10:37:26;;;;;;;5.40;1.87;;;3.60;99.90;;;;;;4896059;29;20550;-75
2021/12/10 10:39:52;;;;;;;2.67;1.73;;;3.50;99.90;;;;;;4896313;29;20619;-72
2021/12/10 10:42:24;;;;;;;3.77;1.10;;;3.50;99.90;;;;;;4896144;29;20806;-72
2021/12/10 10:44:50;;;;;;;3.03;1.17;;;3.50;99.90;;;;;;4896110;29;20187;-73
2021/12/10 10:47:16;;;;;;;2.13;1.10;;;3.60;99.90;;;;;;4895860;29;20416;-73
2021/12/10 10:49:46;;;;;;;2.27;1.47;;;3.60;99.90;;;;;;4896163;29;20423;-73
2021/12/10 10:52:20;;;;;;;1.23;1.10;;;3.70;99.90;;;;;;4894683;29;20445;-72
2021/12/10 10:54:48;;;;;;;4.33;1.00;;;3.70;99.90;;;;;;4895971;29;20458;-73
2021/12/10 10:57:25;;;;;;;1.53;1.17;;;3.80;99.90;;;;;;4894488;29;20474;-73
2021/12/10 10:59:56;;;;;;;1.83;1.40;;;3.80;99.90;;;;;;4896164;29;20893;-72
2021/12/10 11:02:27;;;;;;;1.23;1.13;;;3.80;99.90;;;;;;4896013;29;20820;-73
2021/12/10 11:04:53;;;;;;;1.83;1.53;;;3.90;99.90;;;;;;4896050;29;20419;-73
2021/12/10 11:07:26;;;;;;;2.50;1.40;;;4.00;99.90;;;;;;4895760;29;20922;-73
2021/12/10 11:09:55;;;;;;;2.50;1.67;;;4.00;99.90;;;;;;4896202;29;20850;-75
2021/12/10 11:12:31;;;;;;;2.73;1.30;;;4.00;99.90;;;;;;4894663;29;20518;-76
2021/12/10 11:14:59;;;;;;;3.07;1.83;;;4.00;99.90;;;;;;4896067;29;20763;-75
2021/12/10 11:17:42;;;;;;;3.23;1.20;;;4.10;99.90;;;;;;4895560;29;20568;-75
2021/12/10 11:20:19;;;;;;;4.30;1.10;;;4.10;99.90;;;;;;4896040;29;20448;-75
2021/12/10 11:22:56;;;;;;;2.27;1.13;;;4.10;99.90;;;;;;4895608;29;20487;-75
2021/12/10 11:25:36;;;;;;;1.97;1.10;;;4.10;99.90;;;;;;4895741;29;20425;-75
2021/12/10 11:28:14;;;;;;;1.47;1.13;;;4.20;99.90;;;;;;4896048;29;20449;-75
2021/12/10 11:30:52;;;;;;;0.97;0.80;;;4.20;99.90;;;;;;4894676;29;20424;-75
2021/12/10 11:33:24;;;;;;;2.17;1.20;;;4.30;99.90;;;;;;4895793;29;20481;-77
2021/12/10 11:35:53;;;;;;;1.10;0.87;;;4.30;99.90;;;;;;4895723;29;20428;-76
2021/12/10 11:38:28;;;;;;;2.10;0.90;;;4.30;99.90;;;;;;4894333;29;20484;-75
2021/12/10 11:41:01;;;;;;;4.07;0.90;;;4.30;99.90;;;;;;4895885;29;20402;-75
2021/12/10 11:43:44;;;;;;;0.73;0.73;;;4.30;99.90;;;;;;4894522;29;20448;-73
2021/12/10 11:49:00;;;;;;;2.10;0.70;;;4.10;99.90;;;;;;4899194;29;20396;-73
2021/12/10 11:51:38;;;;;;;0.90;0.50;;;3.90;99.90;;;;;;4897945;29;21128;-73
2021/12/10 11:54:15;;;;;;;0.93;0.60;;;3.80;99.90;;;;;;4903988;29;20459;-72
2021/12/10 11:56:45;;;;;;;0.60;0.60;;;3.50;99.90;;;;;;4900451;29;20788;-72
2021/12/10 11:59:12;;;;;;;3.43;0.67;;;3.40;99.90;;;;;;4896763;29;20470;-72
2021/12/10 12:01:56;;;;;;;2.00;0.97;;;3.10;99.90;;;;;;4898692;29;20444;-73
2021/12/10 12:04:30;;;;;;;2.50;0.60;;;3.00;99.90;;;;;;4898633;29;20416;-73
2021/12/10 12:07:14;;;;;;;2.10;0.80;;;3.00;99.90;;;;;;4898439;29;20416;-74
2021/12/10 12:09:41;;;;;;;1.37;0.90;;;2.90;99.90;;;;;;4898902;29;20410;-73
2021/12/10 12:12:14;;;;;;;2.93;0.70;;;2.70;99.90;;;;;;4898950;29;20432;-72
2021/12/10 12:14:47;;;;;;;1.00;0.90;;;2.60;99.90;;;;;;4897577;29;20436;-72
2021/12/10 12:17:31;;;;;;;1.43;0.63;;;2.50;99.90;;;;;;4898226;29;20834;-73
2021/12/10 12:19:57;;;;;;;4.10;1.00;;;2.50;99.90;;;;;;4898586;29;20417;-72
2021/12/10 12:25:29;;;;;;;5.33;2.80;;;2.40;99.90;;;;;;4897999;29;20419;-72
2021/12/10 12:28:08;;;;;;;1.13;1.00;;;2.30;99.90;;;;;;4898417;29;20469;-73
2021/12/10 12:30:52;;;;;;;2.63;1.00;;;2.20;99.90;;;;;;4898361;29;20447;-72
2021/12/10 12:33:19;;;;;;;1.27;1.20;;;2.20;99.90;;;;;;4896715;29;20446;-73
2021/12/10 12:35:46;;;;;;;1.33;1.23;;;2.20;99.90;;;;;;4898004;29;20442;-72
2021/12/10 12:38:15;;;;;;;2.63;1.10;;;2.20;99.90;;;;;;4898084;29;20474;-73
2021/12/10 12:40:43;;;;;;;2.33;0.90;;;2.20;99.90;;;;;;4898192;29;20410;-72
2021/12/10 12:43:09;;;;;;;1.70;1.40;;;2.20;99.90;;;;;;4897844;29;20416;-72
2021/12/10 12:45:38;;;;;;;3.80;1.40;;;2.20;99.90;;;;;;4897789;29;20443;-73
2021/12/10 12:48:09;;;;;;;1.57;0.90;;;2.20;99.90;;;;;;4898060;29;20477;-73
2021/12/10 12:50:36;;;;;;;4.07;1.30;;;2.30;99.90;;;;;;4898089;29;20406;-73
2021/12/10 12:53:10;;;;;;;1.77;1.00;;;2.20;99.90;;;;;;4897954;29;20397;-73
2021/12/10 12:55:48;;;;;;;6.93;2.17;;;2.20;99.90;;;;;;4897712;29;20415;-75
2021/12/10 12:58:16;;;;;;;2.13;1.20;;;2.30;99.90;;;;;;4896776;29;20462;-75
2021/12/10 13:01:09;;;;;;;1.67;1.53;;;2.30;99.90;;;;;;4897820;29;20893;-75
2021/12/10 13:03:44;;;;;;;3.40;1.70;;;2.40;99.90;;;;;;4897613;29;20382;-75
2021/12/10 13:06:25;;;;;;;1.67;1.57;;;2.40;99.90;;;;;;4897308;29;20418;-75
2021/12/10 13:09:03;;;;;;;4.20;1.77;;;2.50;99.90;;;;;;4897692;29;20422;-75
2021/12/10 13:11:49;;;;;;;5.53;2.60;;;2.50;99.90;;;;;;4897740;29;20419;-74
2021/12/10 13:14:18;;;;;;;5.67;1.90;;;2.60;99.90;;;;;;4898372;29;20424;-75
2021/12/10 13:16:51;;;;;;;4.90;2.10;;;2.60;99.90;;;;;;4897036;29;20400;-75
2021/12/10 13:19:24;;;;;;;3.43;1.57;;;2.60;99.90;;;;;;4897335;29;20464;-72
2021/12/10 13:21:57;;;;;;;2.80;1.53;;;2.60;99.90;;;;;;4897498;29;20512;-74
2021/12/10 13:24:23;;;;;;;2.53;1.60;;;2.60;99.90;;;;;;4897105;29;20618;-75
2021/12/10 13:26:49;;;;;;;3.03;2.70;;;2.70;99.90;;;;;;4896997;29;20420;-75
2021/12/10 13:29:16;;;;;;;1.63;1.50;;;2.60;99.90;;;;;;4897167;29;20787;-75
2021/12/10 13:31:42;;;;;;;4.10;1.47;;;2.70;99.90;;;;;;4897225;29;20214;-74
2021/12/10 13:34:08;;;;;;;2.97;2.10;;;2.70;99.90;;;;;;4897051;29;20529;-75
2021/12/10 13:36:35;;;;;;;3.33;1.50;;;2.60;99.90;;;;;;4897017;29;20502;-74
2021/12/10 13:39:01;;;;;;;2.97;2.00;;;2.60;99.90;;;;;;4897250;29;20946;-76
2021/12/10 13:41:31;;;;;;;2.00;1.50;;;2.60;99.90;;;;;;4897107;29;20473;-74
2021/12/10 13:44:06;;;;;;;1.77;1.63;;;2.60;99.90;;;;;;4897015;29;20309;-74
2021/12/10 13:46:34;;;;;;;2.37;1.50;;;2.60;99.90;;;;;;4895345;29;20423;-74
2021/12/10 13:49:06;;;;;;;3.07;2.00;;;2.60;99.90;;;;;;4896919;29;20473;-75
2021/12/10 13:51:34;;;;;;;5.47;2.53;;;2.60;99.90;;;;;;4901973;29;20867;-76
2021/12/10 13:54:22;;;;;;;3.60;2.13;;;2.60;99.90;;;;;;4900333;29;20954;-75
2021/12/10 13:56:53;;;;;;;3.17;1.77;;;2.50;99.90;;;;;;4895310;29;20426;-75
2021/12/10 13:59:25;;;;;;;2.40;1.77;;;2.60;99.90;;;;;;4896453;29;20464;-76
2021/12/10 14:01:53;;;;;;;3.97;2.37;;;2.60;99.90;;;;;;4895385;29;20409;-76
2021/12/10 14:04:29;;;;;;;3.53;1.70;;;2.60;99.90;;;;;;4896258;29;20980;-75
2021/12/10 14:07:08;;;;;;;2.80;1.70;;;2.60;99.90;;;;;;4896268;29;20415;-75
2021/12/10 14:09:42;;;;;;;5.80;2.43;;;2.60;99.90;;;;;;4894697;29;20481;-75
2021/12/10 14:12:16;;;;;;;3.13;2.60;;;2.60;99.90;;;;;;4896467;29;20522;-75
2021/12/10 14:14:56;;;;;;;3.77;1.93;;;2.60;99.90;;;;;;4896428;29;20902;-75
2021/12/10 14:17:27;;;;;;;3.87;2.20;;;2.70;99.90;;;;;;4896099;29;20437;-75
2021/12/10 14:19:55;;;;;;;2.53;2.33;;;2.70;99.90;;;;;;4896453;29;20388;-75
2021/12/10 14:22:49;;;;;;;2.30;2.10;;;2.70;99.90;;;;;;4896187;29;20446;-75
2021/12/10 14:25:45;;;;;;;5.03;2.70;;;2.70;99.90;;;;;;4895985;29;20389;-75
2021/12/10 14:28:14;;;;;;;3.43;2.97;;;2.70;99.90;;;;;;4896457;29;20397;-74
2021/12/10 14:30:49;;;;;;;2.97;2.30;;;2.70;99.90;;;;;;4896244;29;20893;-77
2021/12/10 14:33:21;;;;;;;2.93;2.63;;;2.70;99.90;;;;;;4896089;29;20920;-74
2021/12/10 14:35:53;;;;;;;3.30;2.23;;;2.70;99.90;;;;;;4895937;29;20498;-75
2021/12/10 14:38:29;;;;;;;3.23;2.40;;;2.70;99.90;;;;;;4896177;29;20449;-75
2021/12/10 14:41:00;;;;;;;5.03;2.03;;;2.70;99.90;;;;;;4896212;29;20450;-75
2021/12/10 14:43:40;;;;;;;4.70;2.23;;;2.80;99.90;;;;;;4896282;29;21013;-74
2021/12/10 14:46:16;;;;;;;3.30;2.60;;;2.90;99.90;;;;;;4895705;29;20420;-74
2021/12/10 14:49:08;;;;;;;3.20;2.20;;;2.90;99.90;;;;;;4896164;29;20420;-74
2021/12/10 14:51:35;;;;;;;5.53;2.17;;;2.90;99.90;;;;;;4895783;29;20443;-73
2021/12/10 14:54:07;;;;;;;5.57;2.30;;;2.90;99.90;;;;;;4895868;29;20627;-74
2021/12/10 14:56:40;;;;;;;6.03;3.25;;;2.90;99.90;;;;;;4893895;29;20437;-73
2021/12/10 14:59:11;;;;;;;4.33;2.57;;;2.80;99.90;;;;;;4895909;29;20215;-73
2021/12/10 15:01:44;;;;;;;4.20;2.40;;;2.90;99.90;;;;;;4895973;29;20446;-74
2021/12/10 15:04:19;;;;;;;3.53;1.70;;;2.90;99.90;;;;;;4895757;29;20523;-74
2021/12/10 15:07:07;;;;;;;7.97;2.03;;;2.90;99.90;;;;;;4895786;29;20466;-74
2021/12/10 15:10:09;;;;;;;5.80;1.90;;;2.90;99.90;;;;;;4896245;29;20416;-74
2021/12/10 15:13:00;;;;;;;5.73;2.00;;;3.00;99.90;;;;;;4895037;29;20800;-74
2021/12/10 15:15:56;;;;;;;3.87;1.97;;;3.00;99.90;;;;;;4895189;29;20819;-74
2021/12/10 15:18:43;;;;;;;2.40;1.63;;;3.00;99.90;;;;;;4895755;29;20475;-74
2021/12/10 15:21:22;;;;;;;3.10;2.13;;;3.00;99.90;;;;;;4895876;29;20417;-75
2021/12/10 15:23:57;;;;;;;1.70;1.43;;;3.00;99.90;;;;;;4899405;29;20386;-74
2021/12/10 15:26:26;;;;;;;1.23;1.13;;;3.10;99.90;;;;;;4898711;29;20390;-75
2021/12/10 15:28:52;;;;;;;1.57;1.47;;;3.10;99.90;;;;;;4899567;29;20515;-74
2021/12/10 15:31:18;;;;;;;1.90;1.70;;;3.10;99.90;;;;;;4899267;29;20506;-75
2021/12/10 15:33:48;;;;;;;7.93;1.60;;;3.10;99.90;;;;;;4899151;29;20484;-74
2021/12/10 15:36:15;;;;;;;2.20;1.27;;;3.10;99.90;;;;;;4899391;29;20443;-74
2021/12/10 15:38:45;;;;;;;1.90;1.30;;;3.10;99.90;;;;;;4898182;29;20837;-74
2021/12/10 15:41:20;;;;;;;1.10;1.10;;;3.10;99.90;;;;;;4899100;29;20977;-74
2021/12/10 15:43:56;;;;;;;3.70;2.00;;;3.10;99.90;;;;;;4899136;29;20468;-73
2021/12/10 15:46:45;;;;;;;1.50;1.17;;;3.20;99.90;;;;;;4899040;29;20421;-74
2021/12/10 15:49:14;;;;;;;1.37;1.00;;;3.20;99.90;;;;;;4900453;29;20425;-76
2021/12/10 15:51:47;;;;;;;3.27;1.40;;;3.30;99.90;;;;;;4900633;29;20414;-77
2021/12/10 15:54:17;;;;;;;1.17;1.00;;;3.20;99.90;;;;;;4900073;29;21002;-77
2021/12/10 15:57:18;;;;;;;3.70;1.60;;;3.20;99.90;;;;;;4899645;29;20416;-77
2021/12/10 15:59:46;;;;;;;4.70;1.33;;;3.20;99.90;;;;;;4877439;29;20431;-77
2021/12/10 16:02:16;;;;;;;1.50;1.13;;;3.20;99.90;;;;;;4898213;29;20452;-78
2021/12/10 16:04:45;;;;;;;1.50;1.23;;;3.10;99.90;;;;;;4899456;29;20407;-77
2021/12/10 16:07:24;;;;;;;3.50;1.70;;;3.10;99.90;;;;;;4899433;29;20394;-77
2021/12/10 16:10:04;;;;;;;2.13;1.70;;;3.10;99.90;;;;;;4900113;29;20765;-78
2021/12/10 16:12:30;;;;;;;0.80;0.80;;;3.10;99.90;;;;;;4899390;29;21097;-78
2021/12/10 16:14:56;;;;;;;1.90;1.80;;;3.10;99.90;;;;;;4898850;29;20443;-77
2021/12/10 16:17:21;;;;;;;1.33;1.23;;;3.10;99.90;;;;;;4898888;29;20207;-77
2021/12/10 16:19:49;;;;;;;1.50;1.40;;;3.10;99.90;;;;;;4882189;29;20435;-77
2021/12/10 16:22:20;;;;;;;2.07;1.70;;;3.10;99.90;;;;;;4897608;29;20682;-77
2021/12/10 16:24:53;;;;;;;1.40;1.30;;;3.10;99.90;;;;;;4898808;29;20427;-76
2021/12/10 16:27:24;;;;;;;2.00;1.90;;;3.10;99.90;;;;;;4898949;29;20430;-77
2021/12/10 16:29:55;;;;;;;4.20;1.40;;;3.10;99.90;;;;;;4898966;29;20451;-77
2021/12/10 16:32:28;;;;;;;4.50;2.20;;;3.10;99.90;;;;;;4896684;29;20474;-77
2021/12/10 16:35:08;;;;;;;1.80;1.70;;;3.20;99.90;;;;;;4898463;29;20465;-77
2021/12/10 16:37:38;;;;;;;2.73;2.33;;;3.20;99.90;;;;;;4897326;29;20476;-77
2021/12/10 16:40:09;;;;;;;4.53;2.50;;;3.20;99.90;;;;;;4897420;29;20482;-78
2021/12/10 16:42:35;;;;;;;2.67;1.80;;;3.20;99.90;;;;;;4898258;29;20436;-76
2021/12/10 16:45:01;;;;;;;2.50;1.93;;;3.30;99.90;;;;;;4903813;29;20437;-75
2021/12/10 16:47:30;;;;;;;2.03;1.83;;;3.30;99.90;;;;;;4898287;29;20221;-76
2021/12/10 16:49:56;;;;;;;3.23;2.43;;;3.30;99.90;;;;;;4898233;29;20422;-76
2021/12/10 16:52:32;;;;;;;2.33;2.10;;;3.40;99.90;;;;;;4897665;29;20427;-79
2021/12/10 16:55:00;;;;;;;2.07;1.80;;;3.40;99.90;;;;;;4897723;29;20425;-76
2021/12/10 16:57:36;;;;;;;1.93;1.83;;;3.40;99.90;;;;;;4897622;29;20453;-76
2021/12/10 17:00:12;;;;;;;1.83;1.73;;;3.50;99.90;;;;;;4897872;29;20422;-76
2021/12/10 17:02:37;;;;;;;1.73;1.53;;;3.50;99.90;;;;;;4897512;29;20481;-75
2021/12/10 17:05:12;;;;;;;3.37;2.00;;;3.50;99.90;;;;;;4897294;29;20962;-77
2021/12/10 17:07:42;;;;;;;1.77;1.67;;;3.50;99.90;;;;;;4897790;29;20182;-76
2021/12/10 17:10:21;;;;;;;1.73;1.33;;;3.50;99.90;;;;;;4897428;29;20432;-76
2021/12/10 17:12:48;;;;;;;1.33;1.23;;;3.60;99.90;;;;;;4900524;29;20931;-77
2021/12/10 17:15:18;;;;;;;1.07;0.90;;;3.60;99.90;;;;;;4898374;29;20399;-79
2021/12/10 17:17:51;;;;;;;1.63;1.53;;;3.60;99.90;;;;;;4897759;29;20980;-79
2021/12/10 17:20:36;;;;;;;1.83;1.20;;;3.60;99.90;;;;;;4897620;29;20420;-79
2021/12/10 17:23:06;;;;;;;1.53;1.27;;;3.60;99.90;;;;;;4887213;29;20435;-79
2021/12/10 17:25:36;;;;;;;1.63;1.40;;;3.60;99.90;;;;;;4899743;29;20428;-80
2021/12/10 17:28:06;;;;;;;1.80;1.53;;;3.70;99.90;;;;;;4896042;29;20417;-79
2021/12/10 17:30:38;;;;;;;1.40;1.13;;;3.70;99.90;;;;;;4897904;29;20908;-79
2021/12/10 17:33:11;;;;;;;1.47;1.37;;;3.70;99.90;;;;;;4897180;29;20451;-78
2021/12/10 17:35:41;;;;;;;0.70;0.70;;;3.70;99.90;;;;;;4897505;29;20439;-78
2021/12/10 17:38:10;;;;;;;0.87;0.87;;;3.70;99.90;;;;;;4896553;29;20476;-79
2021/12/10 17:40:41;;;;;;;0.80;0.80;;;3.70;99.90;;;;;;4897614;29;20432;-77
2021/12/10 17:43:10;;;;;;;0.80;0.80;;;3.80;99.90;;;;;;4897107;29;20477;-79
2021/12/10 17:45:56;;;;;;;1.10;0.70;;;3.80;99.90;;;;;;4896858;29;20473;-81
2021/12/10 17:48:29;;;;;;;5.77;1.03;;;3.80;99.90;;;;;;4899923;29;20434;-80
2021/12/10 17:50:56;;;;;;;2.00;0.90;;;3.80;99.90;;;;;;4897242;29;20440;-79
2021/12/10 17:53:21;;;;;;;0.83;0.83;;;3.80;99.90;;;;;;4897286;29;20429;-80
2021/12/10 17:55:55;;;;;;;0.83;0.63;;;3.80;99.90;;;;;;4897327;29;20394;-77